METAR Data
IDs: Format: Raw Decoded Include TAF

Data at: 1252 UTC 15 Jul 2020

KCDN 151235Z AUTO 00000KT 9SM FEW120 26/24 A3009 RMK AO2
KCDN 151215Z AUTO 00000KT 9SM BKN110 25/24 A3009 RMK AO2
KCDN 151155Z AUTO 00000KT 8SM BKN110 25/24 A3008 RMK AO2
KCDN 151135Z AUTO 00000KT 8SM SCT100 BKN120 25/24 A3007 RMK AO2
KCDN 151115Z AUTO 00000KT 6SM BR BKN120 25/24 A3007 RMK AO2
KCDN 151055Z AUTO 06004KT 7SM BKN120 25/24 A3007 RMK AO2
KCDN 151035Z AUTO 00000KT 9SM FEW100 BKN120 25/24 A3006 RMK AO2
KCDN 151015Z AUTO 00000KT 8SM BKN095 OVC120 25/24 A3006 RMK AO2
KCDN 150955Z AUTO 00000KT 8SM OVC100 24/24 A3005 RMK AO2
KCDN 150935Z AUTO 00000KT 9SM OVC100 24/24 A3005 RMK AO2
KCDN 150915Z AUTO 00000KT 9SM OVC095 24/24 A3004 RMK AO2
KCDN 150855Z AUTO 00000KT 10SM BKN100 24/24 A3004 RMK AO2
KCDN 150835Z AUTO 00000KT 10SM OVC100 24/24 A3003 RMK AO2
KCDN 150815Z AUTO 00000KT 10SM OVC100 24/24 A3003 RMK AO2
KCDN 150755Z AUTO 00000KT 9SM SCT095 24/23 A3003 RMK AO2
KCDN 150735Z AUTO 00000KT 10SM CLR 25/23 A3003 RMK AO2
KCDN 150715Z AUTO 00000KT 10SM CLR 25/23 A3003 RMK AO2
KCDN 150655Z AUTO 00000KT 10SM CLR 25/24 A3003 RMK AO2
KCDN 150635Z AUTO 00000KT 10SM CLR 25/24 A3003 RMK AO2
KCDN 150615Z AUTO 00000KT 10SM CLR 25/24 A3003 RMK AO2
KCDN 150555Z AUTO 00000KT 10SM CLR 25/24 A3004 RMK AO2
KCDN 150535Z AUTO 00000KT 10SM CLR 25/24 A3004 RMK AO2
KCDN 150515Z AUTO 00000KT 10SM CLR 26/24 A3004 RMK AO2
KCDN 150455Z AUTO 00000KT 10SM CLR 26/24 A3004 RMK AO2
KCDN 150435Z AUTO 00000KT 10SM CLR 26/24 A3005 RMK AO2
KCDN 150415Z AUTO 00000KT 10SM FEW055 SCT090 26/24 A3006 RMK AO2
KCDN 150355Z AUTO 00000KT 10SM SCT090 26/24 A3005 RMK AO2
KCDN 150335Z AUTO 00000KT 10SM SCT090 26/24 A3005 RMK AO2
KCDN 150315Z AUTO 00000KT 10SM CLR 26/24 A3005 RMK AO2
KCDN 150255Z AUTO 00000KT 10SM CLR 28/23 A3004 RMK AO2
KCDN 150235Z AUTO 00000KT 10SM CLR 28/23 A3004 RMK AO2
KCDN 150215Z AUTO 00000KT 10SM CLR 28/23 A3003 RMK AO2
KCDN 150155Z AUTO 00000KT 10SM FEW095 28/24 A3003 RMK AO2
KCDN 150135Z AUTO 00000KT 10SM FEW070 BKN095 29/24 A3003 RMK AO2
KCDN 150115Z AUTO 24005KT 10SM SCT050 SCT060 SCT080 29/24 A3002 RMK AO2
KCDN 150055Z AUTO 00000KT 10SM SCT080 SCT100 29/25 A3002 RMK AO2
KCDN 150035Z AUTO 00000KT 10SM SCT080 SCT100 30/25 A3001 RMK AO2
KCDN 150015Z AUTO 00000KT 10SM FEW100 31/24 A3001 RMK AO2
KCDN 142355Z AUTO 00000KT 10SM CLR 32/24 A3000 RMK AO2
KCDN 142335Z AUTO 00000KT 10SM CLR 32/24 A2999 RMK AO2
KCDN 142315Z AUTO 08004KT 10SM CLR 33/23 A2999 RMK AO2
KCDN 142255Z AUTO 00000KT 10SM CLR 33/22 A2999 RMK AO2
KCDN 142235Z AUTO 11005KT 10SM CLR 33/21 A2999 RMK AO2
KCDN 142215Z AUTO VRB03KT 10SM CLR 33/22 A2998 RMK AO2
KCDN 142155Z AUTO 06005G10KT 10SM FEW110 33/22 A2998 RMK AO2
KCDN 142135Z AUTO 07008KT 10SM FEW110 33/22 A2998 RMK AO2
KCDN 142115Z AUTO 01005KT 10SM SCT049 SCT070 BKN095 33/23 A2998 RMK AO2
KCDN 142055Z AUTO 36005KT 10SM BKN049 BKN065 BKN090 33/22 A2998 RMK AO2
KCDN 142035Z AUTO 36010KT 10SM FEW120 34/23 A2998 RMK AO2
KCDN 142015Z AUTO VRB04KT 10SM CLR 34/22 A2998 RMK AO2
KCDN 141955Z AUTO 21007KT 10SM FEW080 34/21 A2997 RMK AO2
KCDN 141935Z AUTO VRB05KT 10SM FEW050 FEW065 33/22 A2998 RMK AO2
KCDN 141915Z AUTO 18004KT 10SM SCT050 BKN065 SCT100 33/21 A2998 RMK AO2
KCDN 141855Z AUTO VRB06KT 10SM FEW100 33/21 A2998 RMK AO2
KCDN 141835Z AUTO VRB03KT 10SM FEW050 FEW065 SCT100 34/22 A2999 RMK AO2
KCDN 141815Z AUTO 14005KT 10SM BKN050 BKN060 BKN075 33/22 A2999 RMK AO2
KCDN 141755Z AUTO VRB03KT 10SM BKN049 BKN100 32/21 A2999 RMK AO2
KCDN 141735Z AUTO VRB03KT 10SM FEW050 SCT095 32/21 A3000 RMK AO2
KCDN 141715Z AUTO 00000KT 10SM SCT100 33/21 A3001 RMK AO2
KCDN 141655Z AUTO VRB04KT 10SM CLR 33/22 A3001 RMK AO2
KCDN 141635Z AUTO 00000KT 10SM FEW046 32/21 A3001 RMK AO2
KCDN 141615Z AUTO 00000KT 10SM CLR 32/22 A3001 RMK AO2
KCDN 141555Z AUTO 08005KT 10SM CLR 32/22 A3001 RMK AO2
KCDN 141535Z AUTO VRB04KT 10SM CLR 32/22 A3001 RMK AO2
KCDN 141515Z AUTO VRB05KT 10SM CLR 32/23 A3001 RMK AO2
KCDN 141455Z AUTO 10004KT 10SM CLR 31/23 A3001 RMK AO2
KCDN 141435Z AUTO VRB04KT 10SM CLR 30/23 A3001 RMK AO2
KCDN 141415Z AUTO VRB04KT 10SM CLR 30/23 A3001 RMK AO2
KCDN 141355Z AUTO VRB03KT 10SM CLR 29/23 A3001 RMK AO2
KCDN 141335Z AUTO 00000KT 10SM CLR 28/23 A3001 RMK AO2
KCDN 141315Z AUTO 00000KT 10SM CLR 27/22 A3000 RMK AO2
KCDN 141255Z AUTO 00000KT 10SM CLR 26/22 A3000 RMK AO2
KCDN 141235Z AUTO 00000KT 9SM CLR 25/22 A2999 RMK AO2
KCDN 141215Z AUTO 00000KT 10SM CLR 24/22 A2999 RMK AO2
KCDN 141155Z AUTO 00000KT 10SM CLR 24/21 A2998 RMK AO2
KCDN 141135Z AUTO 00000KT 10SM CLR 23/21 A2997 RMK AO2
KCDN 141115Z AUTO 00000KT 10SM CLR 22/21 A2997 RMK AO2
KCDN 141055Z AUTO 08003KT 9SM CLR 22/21 A2996 RMK AO2
KCDN 141035Z AUTO 05003KT 10SM CLR 21/21 A2996 RMK AO2
KCDN 140955Z AUTO 07004KT 10SM CLR 21/21 A2995 RMK AO2
KCDN 140935Z AUTO 09004KT 10SM CLR 22/21 A2994 RMK AO2
KCDN 140915Z AUTO 05003KT 10SM CLR 22/21 A2993 RMK AO2
KCDN 140855Z AUTO 07003KT 10SM CLR 22/21 A2993 RMK AO2
KCDN 140835Z AUTO 00000KT 10SM CLR 22/21 A2992 RMK AO2
KCDN 140815Z AUTO 00000KT 10SM CLR 22/21 A2992 RMK AO2
KCDN 140715Z AUTO 00000KT 10SM CLR 22/22 A2992 RMK AO2
KCDN 140655Z AUTO 00000KT 10SM CLR 22/22 A2991 RMK AO2
KCDN 140635Z AUTO 00000KT 10SM CLR 23/22 A2992 RMK AO2
KCDN 140615Z AUTO 00000KT 10SM CLR 23/22 A2992 RMK AO2
KCDN 140535Z AUTO 00000KT 10SM FEW100 23/22 A2992 RMK AO2
KCDN 140515Z AUTO 00000KT 10SM CLR 24/22 A2992 RMK AO2
KCDN 140455Z AUTO 00000KT 10SM CLR 24/22 A2992 RMK AO2
KCDN 140435Z AUTO 00000KT 10SM CLR 24/22 A2992 RMK AO2
KCDN 140415Z AUTO 26003KT 10SM CLR 24/23 A2993 RMK AO2
KCDN 140355Z AUTO 00000KT 10SM CLR 24/22 A2993 RMK AO2
KCDN 140335Z AUTO 00000KT 10SM CLR 25/22 A2993 RMK AO2
KCDN 140315Z AUTO 00000KT 10SM CLR 25/22 A2993 RMK AO2
KCDN 140255Z AUTO 00000KT 10SM CLR 25/22 A2993 RMK AO2
KCDN 140235Z AUTO 00000KT 10SM CLR 25/23 A2992 RMK AO2
KCDN 140215Z AUTO 11006KT 10SM CLR 25/24 A2992 RMK AO2
KCDN 140155Z AUTO 10006KT 10SM FEW090 26/24 A2991 RMK AO2
KCDN 140135Z AUTO 07003KT 10SM FEW085 26/24 A2990 RMK AO2
KCDN 140115Z AUTO 07004KT 10SM CLR 26/24 A2990 RMK AO2
KCDN 140055Z AUTO 06004KT 26/24 A2989 RMK AO2